Rocksprings, Texas
Current Conditions -  °F | °C
As of 6:10 AM on Thursday 23 Oct 2014 (Local Time) from KECU Reporting Station
Few Clouds Few Clouds  
Wind Chill: 61°   Ceiling: Unl
Heat Index: 61°   Visibility: 7mi
Dew Point: 57°   Wind: 3mph
Humidity: 88%   Direction: 130°SE
Pressure: 30.15"   Gusts: NA
Location:  30.02°N, 100.21°W
Report Text: KECU 231110Z AUTO 13003KT 7SM FEW055 16/14 A3015 RMK AO2
Loading
Personal Weather Stations






























Interactive Weather Map New forecast layout! Learn more

10-Day Weather Forecast

Advertisements
Track Severe Weather on mobile